sensor_id;sensor_type;location;lat;lon;timestamp;P1;durP1;ratioP1;P2;durP2;ratioP2
47381;SDS011;33128;51.580;5.170;2022-10-31T00:01:29;510.90;;;462.85;;
47381;SDS011;33128;51.580;5.170;2022-10-31T00:03:57;517.47;;;469.63;;
47381;SDS011;33128;51.580;5.170;2022-10-31T00:06:23;523.15;;;475.20;;
47381;SDS011;33128;51.580;5.170;2022-10-31T00:08:53;529.30;;;480.90;;
47381;SDS011;33128;51.580;5.170;2022-10-31T00:11:21;518.42;;;469.95;;
47381;SDS011;33128;51.580;5.170;2022-10-31T00:13:47;515.25;;;467.40;;
47381;SDS011;33128;51.580;5.170;2022-10-31T00:16:14;517.42;;;469.35;;
47381;SDS011;33128;51.580;5.170;2022-10-31T00:18:41;514.92;;;467.33;;
47381;SDS011;33128;51.580;5.170;2022-10-31T00:21:06;522.58;;;474.63;;
47381;SDS011;33128;51.580;5.170;2022-10-31T00:23:33;519.55;;;471.42;;
47381;SDS011;33128;51.580;5.170;2022-10-31T00:28:27;523.05;;;475.27;;
47381;SDS011;33128;51.580;5.170;2022-10-31T00:30:57;529.97;;;482.20;;
47381;SDS011;33128;51.580;5.170;2022-10-31T00:33:27;530.95;;;483.33;;
47381;SDS011;33128;51.580;5.170;2022-10-31T00:35:53;529.35;;;482.02;;
47381;SDS011;33128;51.580;5.170;2022-10-31T00:38:18;525.67;;;478.13;;
47381;SDS011;33128;51.580;5.170;2022-10-31T00:40:44;520.97;;;473.75;;
47381;SDS011;33128;51.580;5.170;2022-10-31T00:43:19;525.38;;;477.88;;
47381;SDS011;33128;51.580;5.170;2022-10-31T00:45:44;514.47;;;467.65;;
47381;SDS011;33128;51.580;5.170;2022-10-31T00:48:10;507.55;;;460.92;;
47381;SDS011;33128;51.580;5.170;2022-10-31T00:50:36;499.98;;;453.70;;
47381;SDS011;33128;51.580;5.170;2022-10-31T00:53:03;522.00;;;474.80;;
47381;SDS011;33128;51.580;5.170;2022-10-31T00:55:41;516.95;;;469.20;;
47381;SDS011;33128;51.580;5.170;2022-10-31T00:58:06;517.08;;;470.02;;
47381;SDS011;33128;51.580;5.170;2022-10-31T01:00:32;515.35;;;468.50;;
47381;SDS011;33128;51.580;5.170;2022-10-31T01:02:58;500.85;;;454.50;;
47381;SDS011;33128;51.580;5.170;2022-10-31T01:05:23;506.70;;;459.92;;
47381;SDS011;33128;51.580;5.170;2022-10-31T01:07:58;511.63;;;464.52;;
47381;SDS011;33128;51.580;5.170;2022-10-31T01:10:39;504.60;;;457.60;;
47381;SDS011;33128;51.580;5.170;2022-10-31T01:13:06;505.85;;;458.95;;
47381;SDS011;33128;51.580;5.170;2022-10-31T01:15:31;516.53;;;469.17;;
47381;SDS011;33128;51.580;5.170;2022-10-31T01:17:57;518.97;;;471.27;;
47381;SDS011;33128;51.580;5.170;2022-10-31T01:20:22;522.47;;;474.17;;
47381;SDS011;33128;51.580;5.170;2022-10-31T01:23:00;517.92;;;470.13;;
47381;SDS011;33128;51.580;5.170;2022-10-31T01:25:40;508.98;;;461.50;;
47381;SDS011;33128;51.580;5.170;2022-10-31T01:28:07;498.35;;;451.00;;
47381;SDS011;33128;51.580;5.170;2022-10-31T01:30:33;505.25;;;458.30;;
47381;SDS011;33128;51.580;5.170;2022-10-31T01:32:58;363.45;;;310.45;;
47381;SDS011;33128;51.580;5.170;2022-10-31T01:35:24;359.73;;;304.13;;
47381;SDS011;33128;51.580;5.170;2022-10-31T01:37:49;362.55;;;300.80;;
47381;SDS011;33128;51.580;5.170;2022-10-31T01:40:15;362.63;;;303.50;;
47381;SDS011;33128;51.580;5.170;2022-10-31T01:42:40;365.13;;;306.02;;
47381;SDS011;33128;51.580;5.170;2022-10-31T01:45:09;369.10;;;307.30;;
47381;SDS011;33128;51.580;5.170;2022-10-31T01:47:45;373.67;;;311.92;;
47381;SDS011;33128;51.580;5.170;2022-10-31T01:55:28;369.40;;;308.75;;
47381;SDS011;33128;51.580;5.170;2022-10-31T01:57:59;366.77;;;309.88;;
47381;SDS011;33128;51.580;5.170;2022-10-31T02:00:49;364.45;;;306.48;;
47381;SDS011;33128;51.580;5.170;2022-10-31T02:03:19;373.10;;;315.08;;
47381;SDS011;33128;51.580;5.170;2022-10-31T02:05:47;369.73;;;308.30;;
47381;SDS011;33128;51.580;5.170;2022-10-31T02:10:43;369.98;;;310.95;;
47381;SDS011;33128;51.580;5.170;2022-10-31T02:13:09;368.88;;;305.40;;
47381;SDS011;33128;51.580;5.170;2022-10-31T02:15:37;373.02;;;310.55;;
47381;SDS011;33128;51.580;5.170;2022-10-31T02:18:04;367.00;;;306.73;;
47381;SDS011;33128;51.580;5.170;2022-10-31T02:34:22;368.38;;;291.80;;
47381;SDS011;33128;51.580;5.170;2022-10-31T02:39:55;368.83;;;290.60;;
47381;SDS011;33128;51.580;5.170;2022-10-31T02:42:33;366.23;;;294.52;;
47381;SDS011;33128;51.580;5.170;2022-10-31T02:50:22;372.23;;;313.50;;
47381;SDS011;33128;51.580;5.170;2022-10-31T02:52:53;370.13;;;310.65;;
47381;SDS011;33128;51.580;5.170;2022-10-31T02:57:57;371.55;;;313.67;;
47381;SDS011;33128;51.580;5.170;2022-10-31T03:00:38;363.00;;;313.27;;
47381;SDS011;33128;51.580;5.170;2022-10-31T03:09:02;374.23;;;316.45;;
47381;SDS011;33128;51.580;5.170;2022-10-31T03:11:56;371.08;;;316.95;;
47381;SDS011;33128;51.580;5.170;2022-10-31T03:14:33;368.27;;;317.42;;
47381;SDS011;33128;51.580;5.170;2022-10-31T03:17:12;366.40;;;317.50;;
47381;SDS011;33128;51.580;5.170;2022-10-31T03:19:45;368.80;;;311.67;;
47381;SDS011;33128;51.580;5.170;2022-10-31T03:22:19;368.30;;;311.42;;
47381;SDS011;33128;51.580;5.170;2022-10-31T03:24:48;372.05;;;319.92;;
47381;SDS011;33128;51.580;5.170;2022-10-31T03:27:16;368.63;;;310.58;;
47381;SDS011;33128;51.580;5.170;2022-10-31T03:29:47;362.80;;;306.52;;
47381;SDS011;33128;51.580;5.170;2022-10-31T03:32:16;368.33;;;313.10;;
47381;SDS011;33128;51.580;5.170;2022-10-31T03:34:53;367.55;;;313.13;;
47381;SDS011;33128;51.580;5.170;2022-10-31T03:37:21;364.70;;;308.98;;
47381;SDS011;33128;51.580;5.170;2022-10-31T03:39:50;366.92;;;313.98;;
47381;SDS011;33128;51.580;5.170;2022-10-31T03:42:18;365.15;;;311.40;;
47381;SDS011;33128;51.580;5.170;2022-10-31T03:44:53;363.63;;;313.27;;
47381;SDS011;33128;51.580;5.170;2022-10-31T03:47:33;369.10;;;311.75;;
47381;SDS011;33128;51.580;5.170;2022-10-31T03:50:00;364.27;;;303.90;;
47381;SDS011;33128;51.580;5.170;2022-10-31T03:54:55;365.13;;;311.73;;
47381;SDS011;33128;51.580;5.170;2022-10-31T03:57:34;363.23;;;307.52;;
47381;SDS011;33128;51.580;5.170;2022-10-31T04:00:07;361.30;;;304.55;;
47381;SDS011;33128;51.580;5.170;2022-10-31T04:02:38;369.95;;;304.65;;
47381;SDS011;33128;51.580;5.170;2022-10-31T04:05:10;357.10;;;296.85;;
47381;SDS011;33128;51.580;5.170;2022-10-31T04:07:39;361.65;;;302.40;;
47381;SDS011;33128;51.580;5.170;2022-10-31T04:10:10;362.83;;;311.33;;
47381;SDS011;33128;51.580;5.170;2022-10-31T04:12:39;365.42;;;316.10;;
47381;SDS011;33128;51.580;5.170;2022-10-31T04:15:06;361.90;;;312.90;;
47381;SDS011;33128;51.580;5.170;2022-10-31T04:17:34;360.25;;;311.38;;
47381;SDS011;33128;51.580;5.170;2022-10-31T04:20:04;358.05;;;307.13;;
47381;SDS011;33128;51.580;5.170;2022-10-31T04:22:30;354.00;;;300.95;;
47381;SDS011;33128;51.580;5.170;2022-10-31T04:24:56;354.75;;;305.13;;
47381;SDS011;33128;51.580;5.170;2022-10-31T04:27:24;359.08;;;298.88;;
47381;SDS011;33128;51.580;5.170;2022-10-31T04:29:50;356.02;;;301.05;;
47381;SDS011;33128;51.580;5.170;2022-10-31T04:32:18;355.20;;;301.15;;
47381;SDS011;33128;51.580;5.170;2022-10-31T04:34:44;353.83;;;308.63;;
47381;SDS011;33128;51.580;5.170;2022-10-31T04:37:10;358.10;;;309.77;;
47381;SDS011;33128;51.580;5.170;2022-10-31T04:39:35;357.70;;;309.55;;
47381;SDS011;33128;51.580;5.170;2022-10-31T04:42:01;359.63;;;313.35;;
47381;SDS011;33128;51.580;5.170;2022-10-31T04:44:26;360.33;;;301.40;;
47381;SDS011;33128;51.580;5.170;2022-10-31T04:46:52;363.38;;;323.80;;
47381;SDS011;33128;51.580;5.170;2022-10-31T04:49:17;361.42;;;320.42;;
47381;SDS011;33128;51.580;5.170;2022-10-31T04:51:43;363.88;;;321.30;;
47381;SDS011;33128;51.580;5.170;2022-10-31T04:54:08;369.05;;;328.33;;
47381;SDS011;33128;51.580;5.170;2022-10-31T04:56:34;369.02;;;328.35;;
47381;SDS011;33128;51.580;5.170;2022-10-31T04:59:05;387.95;;;346.88;;
47381;SDS011;33128;51.580;5.170;2022-10-31T05:01:31;375.88;;;334.98;;
47381;SDS011;33128;51.580;5.170;2022-10-31T05:03:57;379.42;;;338.80;;
47381;SDS011;33128;51.580;5.170;2022-10-31T05:06:25;367.80;;;319.17;;
47381;SDS011;33128;51.580;5.170;2022-10-31T05:08:51;375.08;;;334.13;;
47381;SDS011;33128;51.580;5.170;2022-10-31T05:11:17;393.88;;;352.67;;
47381;SDS011;33128;51.580;5.170;2022-10-31T05:13:43;392.70;;;351.73;;
47381;SDS011;33128;51.580;5.170;2022-10-31T05:16:08;404.48;;;363.15;;
47381;SDS011;33128;51.580;5.170;2022-10-31T05:18:34;396.50;;;355.67;;
47381;SDS011;33128;51.580;5.170;2022-10-31T05:20:59;385.02;;;344.38;;
47381;SDS011;33128;51.580;5.170;2022-10-31T05:23:25;374.77;;;334.42;;
47381;SDS011;33128;51.580;5.170;2022-10-31T05:25:50;380.85;;;340.17;;
47381;SDS011;33128;51.580;5.170;2022-10-31T05:28:16;363.08;;;323.23;;
47381;SDS011;33128;51.580;5.170;2022-10-31T05:30:41;364.92;;;324.92;;
47381;SDS011;33128;51.580;5.170;2022-10-31T05:33:07;388.80;;;348.85;;
47381;SDS011;33128;51.580;5.170;2022-10-31T05:35:33;371.08;;;324.10;;
47381;SDS011;33128;51.580;5.170;2022-10-31T05:37:59;381.10;;;339.85;;
47381;SDS011;33128;51.580;5.170;2022-10-31T05:40:25;407.35;;;365.73;;
47381;SDS011;33128;51.580;5.170;2022-10-31T05:42:55;387.67;;;344.02;;
47381;SDS011;33128;51.580;5.170;2022-10-31T05:45:21;381.58;;;339.40;;
47381;SDS011;33128;51.580;5.170;2022-10-31T05:47:54;397.45;;;354.48;;
47381;SDS011;33128;51.580;5.170;2022-10-31T05:50:21;419.90;;;376.95;;
47381;SDS011;33128;51.580;5.170;2022-10-31T05:52:53;407.65;;;365.25;;
47381;SDS011;33128;51.580;5.170;2022-10-31T05:55:27;413.15;;;369.77;;
47381;SDS011;33128;51.580;5.170;2022-10-31T05:57:53;404.00;;;362.45;;
47381;SDS011;33128;51.580;5.170;2022-10-31T06:00:19;420.60;;;377.90;;
47381;SDS011;33128;51.580;5.170;2022-10-31T06:02:46;391.02;;;349.15;;
47381;SDS011;33128;51.580;5.170;2022-10-31T06:05:12;410.23;;;367.75;;
47381;SDS011;33128;51.580;5.170;2022-10-31T06:07:37;399.55;;;357.35;;
47381;SDS011;33128;51.580;5.170;2022-10-31T06:10:04;445.70;;;402.30;;
47381;SDS011;33128;51.580;5.170;2022-10-31T06:12:30;434.23;;;391.08;;
47381;SDS011;33128;51.580;5.170;2022-10-31T06:14:56;424.00;;;381.38;;
47381;SDS011;33128;51.580;5.170;2022-10-31T06:17:23;420.48;;;377.92;;
47381;SDS011;33128;51.580;5.170;2022-10-31T06:19:48;416.67;;;373.90;;
47381;SDS011;33128;51.580;5.170;2022-10-31T06:22:16;405.25;;;362.83;;
47381;SDS011;33128;51.580;5.170;2022-10-31T06:24:42;409.10;;;367.05;;
47381;SDS011;33128;51.580;5.170;2022-10-31T06:27:08;412.55;;;371.55;;
47381;SDS011;33128;51.580;5.170;2022-10-31T06:29:33;400.48;;;359.52;;
47381;SDS011;33128;51.580;5.170;2022-10-31T06:31:59;393.70;;;352.92;;
47381;SDS011;33128;51.580;5.170;2022-10-31T06:34:24;414.25;;;372.63;;
47381;SDS011;33128;51.580;5.170;2022-10-31T06:36:50;405.73;;;364.17;;
47381;SDS011;33128;51.580;5.170;2022-10-31T06:39:18;410.92;;;370.15;;
47381;SDS011;33128;51.580;5.170;2022-10-31T06:41:44;422.92;;;381.90;;
47381;SDS011;33128;51.580;5.170;2022-10-31T06:44:11;416.88;;;376.25;;
47381;SDS011;33128;51.580;5.170;2022-10-31T06:46:37;415.35;;;374.85;;
47381;SDS011;33128;51.580;5.170;2022-10-31T06:49:02;411.48;;;371.27;;
47381;SDS011;33128;51.580;5.170;2022-10-31T06:51:28;392.23;;;352.88;;
47381;SDS011;33128;51.580;5.170;2022-10-31T06:53:53;381.80;;;342.98;;
47381;SDS011;33128;51.580;5.170;2022-10-31T06:56:19;390.90;;;351.67;;
47381;SDS011;33128;51.580;5.170;2022-10-31T06:58:45;369.10;;;331.38;;
47381;SDS011;33128;51.580;5.170;2022-10-31T07:01:10;384.67;;;346.23;;
47381;SDS011;33128;51.580;5.170;2022-10-31T07:03:36;390.63;;;352.08;;
47381;SDS011;33128;51.580;5.170;2022-10-31T07:06:01;378.55;;;340.10;;
47381;SDS011;33128;51.580;5.170;2022-10-31T07:08:27;378.20;;;339.85;;
47381;SDS011;33128;51.580;5.170;2022-10-31T07:10:53;395.30;;;356.45;;
47381;SDS011;33128;51.580;5.170;2022-10-31T07:13:20;383.95;;;345.42;;
47381;SDS011;33128;51.580;5.170;2022-10-31T07:15:50;392.38;;;353.73;;
47381;SDS011;33128;51.580;5.170;2022-10-31T07:18:19;404.77;;;365.08;;
47381;SDS011;33128;51.580;5.170;2022-10-31T07:20:45;388.88;;;349.85;;
47381;SDS011;33128;51.580;5.170;2022-10-31T07:23:11;409.60;;;370.48;;
47381;SDS011;33128;51.580;5.170;2022-10-31T07:25:38;402.95;;;364.63;;
47381;SDS011;33128;51.580;5.170;2022-10-31T07:28:04;412.05;;;374.25;;
47381;SDS011;33128;51.580;5.170;2022-10-31T07:30:30;408.25;;;370.38;;
47381;SDS011;33128;51.580;5.170;2022-10-31T07:32:56;411.10;;;373.45;;
47381;SDS011;33128;51.580;5.170;2022-10-31T07:35:31;410.33;;;371.52;;
47381;SDS011;33128;51.580;5.170;2022-10-31T07:38:07;413.67;;;375.45;;
47381;SDS011;33128;51.580;5.170;2022-10-31T07:40:33;425.05;;;386.83;;
47381;SDS011;33128;51.580;5.170;2022-10-31T07:42:59;398.02;;;359.90;;
47381;SDS011;33128;51.580;5.170;2022-10-31T07:45:25;411.70;;;373.92;;
47381;SDS011;33128;51.580;5.170;2022-10-31T07:47:59;412.80;;;373.67;;
47381;SDS011;33128;51.580;5.170;2022-10-31T07:50:26;407.90;;;368.52;;
47381;SDS011;33128;51.580;5.170;2022-10-31T07:53:13;416.25;;;377.42;;
47381;SDS011;33128;51.580;5.170;2022-10-31T07:55:39;402.50;;;363.90;;
47381;SDS011;33128;51.580;5.170;2022-10-31T08:00:35;398.95;;;360.13;;
47381;SDS011;33128;51.580;5.170;2022-10-31T08:03:03;404.25;;;364.95;;
47381;SDS011;33128;51.580;5.170;2022-10-31T08:05:30;395.05;;;356.70;;
47381;SDS011;33128;51.580;5.170;2022-10-31T08:07:56;407.73;;;368.33;;
47381;SDS011;33128;51.580;5.170;2022-10-31T08:10:23;405.00;;;366.50;;
47381;SDS011;33128;51.580;5.170;2022-10-31T08:12:59;403.98;;;365.42;;
47381;SDS011;33128;51.580;5.170;2022-10-31T08:15:26;409.10;;;370.60;;
47381;SDS011;33128;51.580;5.170;2022-10-31T08:17:54;420.58;;;380.85;;
47381;SDS011;33128;51.580;5.170;2022-10-31T08:20:27;406.00;;;366.88;;
47381;SDS011;33128;51.580;5.170;2022-10-31T08:23:03;411.27;;;372.13;;
47381;SDS011;33128;51.580;5.170;2022-10-31T08:25:30;398.60;;;359.67;;
47381;SDS011;33128;51.580;5.170;2022-10-31T08:27:57;409.88;;;370.73;;
47381;SDS011;33128;51.580;5.170;2022-10-31T08:30:24;425.05;;;386.80;;
47381;SDS011;33128;51.580;5.170;2022-10-31T08:32:57;434.52;;;394.85;;
47381;SDS011;33128;51.580;5.170;2022-10-31T08:35:24;449.55;;;410.02;;
47381;SDS011;33128;51.580;5.170;2022-10-31T08:37:53;439.77;;;400.45;;
47381;SDS011;33128;51.580;5.170;2022-10-31T08:40:22;444.85;;;406.08;;
47381;SDS011;33128;51.580;5.170;2022-10-31T08:42:56;437.70;;;398.35;;
47381;SDS011;33128;51.580;5.170;2022-10-31T08:45:27;441.30;;;402.38;;
47381;SDS011;33128;51.580;5.170;2022-10-31T08:47:56;424.33;;;385.92;;
47381;SDS011;33128;51.580;5.170;2022-10-31T08:50:26;442.05;;;402.65;;
47381;SDS011;33128;51.580;5.170;2022-10-31T08:52:52;420.98;;;381.50;;
47381;SDS011;33128;51.580;5.170;2022-10-31T08:55:17;413.00;;;373.77;;
47381;SDS011;33128;51.580;5.170;2022-10-31T08:57:43;429.38;;;390.10;;
47381;SDS011;33128;51.580;5.170;2022-10-31T09:00:12;423.75;;;384.90;;
47381;SDS011;33128;51.580;5.170;2022-10-31T09:02:38;407.67;;;368.92;;
47381;SDS011;33128;51.580;5.170;2022-10-31T09:05:03;406.40;;;367.80;;
47381;SDS011;33128;51.580;5.170;2022-10-31T09:07:29;415.13;;;375.52;;
47381;SDS011;33128;51.580;5.170;2022-10-31T09:09:58;420.92;;;381.58;;
47381;SDS011;33128;51.580;5.170;2022-10-31T09:12:23;425.80;;;386.40;;
47381;SDS011;33128;51.580;5.170;2022-10-31T09:14:49;419.55;;;380.40;;
47381;SDS011;33128;51.580;5.170;2022-10-31T09:17:14;412.58;;;373.48;;
47381;SDS011;33128;51.580;5.170;2022-10-31T09:19:40;413.45;;;374.52;;
47381;SDS011;33128;51.580;5.170;2022-10-31T09:22:20;429.80;;;391.17;;
47381;SDS011;33128;51.580;5.170;2022-10-31T09:24:46;415.70;;;377.23;;
47381;SDS011;33128;51.580;5.170;2022-10-31T09:27:15;413.27;;;375.30;;
47381;SDS011;33128;51.580;5.170;2022-10-31T09:29:40;439.48;;;399.63;;
47381;SDS011;33128;51.580;5.170;2022-10-31T09:32:06;447.15;;;407.00;;
47381;SDS011;33128;51.580;5.170;2022-10-31T09:34:31;421.67;;;382.60;;
47381;SDS011;33128;51.580;5.170;2022-10-31T09:36:57;427.95;;;388.45;;
47381;SDS011;33128;51.580;5.170;2022-10-31T09:39:22;420.65;;;381.63;;
47381;SDS011;33128;51.580;5.170;2022-10-31T09:44:37;415.75;;;377.27;;
47381;SDS011;33128;51.580;5.170;2022-10-31T09:52:48;405.92;;;367.55;;
47381;SDS011;33128;51.580;5.170;2022-10-31T09:55:34;392.23;;;354.05;;
47381;SDS011;33128;51.580;5.170;2022-10-31T09:58:02;396.95;;;358.60;;
47381;SDS011;33128;51.580;5.170;2022-10-31T10:00:28;412.33;;;372.65;;
47381;SDS011;33128;51.580;5.170;2022-10-31T10:03:00;432.20;;;392.23;;
47381;SDS011;33128;51.580;5.170;2022-10-31T10:08:18;424.52;;;384.88;;
47381;SDS011;33128;51.580;5.170;2022-10-31T10:16:19;407.88;;;369.60;;
47381;SDS011;33128;51.580;5.170;2022-10-31T10:19:04;425.98;;;385.83;;
47381;SDS011;33128;51.580;5.170;2022-10-31T10:30:18;407.08;;;368.13;;
47381;SDS011;33128;51.580;5.170;2022-10-31T10:32:51;407.15;;;367.77;;
47381;SDS011;33128;51.580;5.170;2022-10-31T10:35:33;411.75;;;372.50;;
47381;SDS011;33128;51.580;5.170;2022-10-31T10:40:52;423.90;;;384.33;;
47381;SDS011;33128;51.580;5.170;2022-10-31T10:43:30;408.02;;;368.85;;
47381;SDS011;33128;51.580;5.170;2022-10-31T10:59:43;392.05;;;353.52;;
47381;SDS011;33128;51.580;5.170;2022-10-31T11:02:16;385.50;;;346.83;;
47381;SDS011;33128;51.580;5.170;2022-10-31T11:04:51;392.70;;;353.70;;
47381;SDS011;33128;51.580;5.170;2022-10-31T11:07:19;399.90;;;361.13;;
47381;SDS011;33128;51.580;5.170;2022-10-31T11:09:45;410.95;;;371.88;;
47381;SDS011;33128;51.580;5.170;2022-10-31T11:14:47;398.55;;;359.60;;
47381;SDS011;33128;51.580;5.170;2022-10-31T11:17:24;415.17;;;376.95;;
47381;SDS011;33128;51.580;5.170;2022-10-31T11:20:22;393.27;;;354.20;;
47381;SDS011;33128;51.580;5.170;2022-10-31T11:23:04;393.17;;;355.20;;
47381;SDS011;33128;51.580;5.170;2022-10-31T11:25:47;397.95;;;359.10;;
47381;SDS011;33128;51.580;5.170;2022-10-31T11:28:15;396.00;;;357.95;;
47381;SDS011;33128;51.580;5.170;2022-10-31T11:30:47;399.92;;;361.92;;
47381;SDS011;33128;51.580;5.170;2022-10-31T11:33:22;410.23;;;371.67;;
47381;SDS011;33128;51.580;5.170;2022-10-31T11:35:49;407.35;;;368.05;;
47381;SDS011;33128;51.580;5.170;2022-10-31T11:38:19;385.50;;;346.98;;
47381;SDS011;33128;51.580;5.170;2022-10-31T11:40:51;393.20;;;354.45;;
47381;SDS011;33128;51.580;5.170;2022-10-31T11:43:26;396.75;;;358.05;;
47381;SDS011;33128;51.580;5.170;2022-10-31T11:45:52;419.73;;;380.85;;
47381;SDS011;33128;51.580;5.170;2022-10-31T11:48:19;407.50;;;368.60;;
47381;SDS011;33128;51.580;5.170;2022-10-31T11:50:51;416.00;;;377.00;;
47381;SDS011;33128;51.580;5.170;2022-10-31T11:53:24;417.63;;;378.23;;
47381;SDS011;33128;51.580;5.170;2022-10-31T11:56:00;421.48;;;382.33;;
47381;SDS011;33128;51.580;5.170;2022-10-31T11:58:35;420.55;;;381.35;;
47381;SDS011;33128;51.580;5.170;2022-10-31T12:01:00;410.70;;;371.77;;
47381;SDS011;33128;51.580;5.170;2022-10-31T12:08:42;407.42;;;368.88;;
47381;SDS011;33128;51.580;5.170;2022-10-31T12:11:11;397.75;;;359.67;;
47381;SDS011;33128;51.580;5.170;2022-10-31T12:17:34;392.40;;;353.45;;
47381;SDS011;33128;51.580;5.170;2022-10-31T12:19:42;412.13;;;373.08;;
47381;SDS011;33128;51.580;5.170;2022-10-31T12:22:11;389.48;;;350.95;;
47381;SDS011;33128;51.580;5.170;2022-10-31T12:25:05;383.65;;;345.27;;
47381;SDS011;33128;51.580;5.170;2022-10-31T12:39:07;412.73;;;373.60;;
47381;SDS011;33128;51.580;5.170;2022-10-31T12:46:59;413.65;;;375.95;;
47381;SDS011;33128;51.580;5.170;2022-10-31T12:52:42;425.23;;;386.73;;
47381;SDS011;33128;51.580;5.170;2022-10-31T12:58:12;399.02;;;362.05;;
47381;SDS011;33128;51.580;5.170;2022-10-31T13:00:48;394.45;;;357.20;;
47381;SDS011;33128;51.580;5.170;2022-10-31T13:05:56;375.60;;;338.83;;
47381;SDS011;33128;51.580;5.170;2022-10-31T13:08:47;389.38;;;353.25;;
47381;SDS011;33128;51.580;5.170;2022-10-31T13:11:36;387.85;;;350.58;;
47381;SDS011;33128;51.580;5.170;2022-10-31T13:14:11;384.20;;;348.13;;
47381;SDS011;33128;51.580;5.170;2022-10-31T13:16:47;391.02;;;354.23;;
47381;SDS011;33128;51.580;5.170;2022-10-31T13:24:20;377.38;;;340.98;;
47381;SDS011;33128;51.580;5.170;2022-10-31T13:26:51;380.20;;;343.80;;
47381;SDS011;33128;51.580;5.170;2022-10-31T13:29:24;372.33;;;336.27;;
47381;SDS011;33128;51.580;5.170;2022-10-31T13:31:51;388.75;;;351.25;;
47381;SDS011;33128;51.580;5.170;2022-10-31T13:34:24;407.05;;;369.02;;
47381;SDS011;33128;51.580;5.170;2022-10-31T13:45:30;402.85;;;364.85;;
47381;SDS011;33128;51.580;5.170;2022-10-31T13:47:56;412.20;;;374.50;;
47381;SDS011;33128;51.580;5.170;2022-10-31T13:50:29;417.20;;;378.92;;
47381;SDS011;33128;51.580;5.170;2022-10-31T16:06:34;37.78;;;34.85;;
47381;SDS011;33128;51.580;5.170;2022-10-31T16:09:00;37.15;;;34.05;;
47381;SDS011;33128;51.580;5.170;2022-10-31T16:11:38;34.70;;;31.98;;
47381;SDS011;33128;51.580;5.170;2022-10-31T16:14:05;35.25;;;32.53;;
47381;SDS011;33128;51.580;5.170;2022-10-31T16:16:48;36.47;;;32.95;;
47381;SDS011;33128;51.580;5.170;2022-10-31T16:19:32;36.53;;;33.88;;
47381;SDS011;33128;51.580;5.170;2022-10-31T16:24:45;37.03;;;34.20;;
47381;SDS011;33128;51.580;5.170;2022-10-31T16:27:30;35.13;;;32.05;;
47381;SDS011;33128;51.580;5.170;2022-10-31T16:29:59;35.40;;;32.65;;
47381;SDS011;33128;51.580;5.170;2022-10-31T16:32:33;35.63;;;32.53;;
47381;SDS011;33128;51.580;5.170;2022-10-31T16:37:39;36.38;;;33.10;;
47381;SDS011;33128;51.580;5.170;2022-10-31T16:40:09;36.30;;;33.72;;
47381;SDS011;33128;51.580;5.170;2022-10-31T16:42:37;37.83;;;34.97;;
47381;SDS011;33128;51.580;5.170;2022-10-31T16:45:04;38.80;;;35.28;;
47381;SDS011;33128;51.580;5.170;2022-10-31T16:47:31;37.00;;;34.28;;
47381;SDS011;33128;51.580;5.170;2022-10-31T16:49:56;37.55;;;34.22;;
47381;SDS011;33128;51.580;5.170;2022-10-31T16:52:25;37.25;;;33.60;;
47381;SDS011;33128;51.580;5.170;2022-10-31T16:54:50;37.78;;;34.75;;
47381;SDS011;33128;51.580;5.170;2022-10-31T16:57:17;36.08;;;33.08;;
47381;SDS011;33128;51.580;5.170;2022-10-31T16:59:48;36.10;;;32.92;;
47381;SDS011;33128;51.580;5.170;2022-10-31T17:02:18;37.63;;;34.67;;
47381;SDS011;33128;51.580;5.170;2022-10-31T17:04:44;36.15;;;33.58;;
47381;SDS011;33128;51.580;5.170;2022-10-31T17:07:10;37.45;;;34.08;;
47381;SDS011;33128;51.580;5.170;2022-10-31T17:09:38;35.90;;;32.72;;
47381;SDS011;33128;51.580;5.170;2022-10-31T17:12:04;35.33;;;32.45;;
47381;SDS011;33128;51.580;5.170;2022-10-31T17:14:32;35.45;;;32.72;;
47381;SDS011;33128;51.580;5.170;2022-10-31T17:16:58;34.95;;;31.75;;
47381;SDS011;33128;51.580;5.170;2022-10-31T17:19:24;36.05;;;32.92;;
47381;SDS011;33128;51.580;5.170;2022-10-31T17:21:49;36.13;;;33.22;;
47381;SDS011;33128;51.580;5.170;2022-10-31T17:24:15;35.03;;;32.42;;
47381;SDS011;33128;51.580;5.170;2022-10-31T17:26:41;32.47;;;29.98;;
47381;SDS011;33128;51.580;5.170;2022-10-31T17:29:07;32.95;;;30.65;;
47381;SDS011;33128;51.580;5.170;2022-10-31T17:31:33;32.78;;;30.17;;
47381;SDS011;33128;51.580;5.170;2022-10-31T17:34:03;32.08;;;29.73;;
47381;SDS011;33128;51.580;5.170;2022-10-31T17:36:31;33.88;;;31.50;;
47381;SDS011;33128;51.580;5.170;2022-10-31T17:38:58;32.60;;;30.33;;
47381;SDS011;33128;51.580;5.170;2022-10-31T17:41:24;34.47;;;31.50;;
47381;SDS011;33128;51.580;5.170;2022-10-31T17:43:56;34.15;;;31.60;;
47381;SDS011;33128;51.580;5.170;2022-10-31T17:46:22;33.22;;;30.77;;
47381;SDS011;33128;51.580;5.170;2022-10-31T17:48:48;33.90;;;31.40;;
47381;SDS011;33128;51.580;5.170;2022-10-31T17:51:14;36.15;;;33.25;;
47381;SDS011;33128;51.580;5.170;2022-10-31T17:53:39;35.47;;;32.97;;
47381;SDS011;33128;51.580;5.170;2022-10-31T17:56:06;33.10;;;30.73;;
47381;SDS011;33128;51.580;5.170;2022-10-31T17:58:33;32.17;;;29.90;;
47381;SDS011;33128;51.580;5.170;2022-10-31T18:01:00;34.17;;;31.17;;
47381;SDS011;33128;51.580;5.170;2022-10-31T18:03:30;32.05;;;29.63;;
47381;SDS011;33128;51.580;5.170;2022-10-31T18:05:56;33.50;;;31.23;;
47381;SDS011;33128;51.580;5.170;2022-10-31T18:08:27;34.22;;;31.08;;
47381;SDS011;33128;51.580;5.170;2022-10-31T18:10:54;31.92;;;29.15;;
47381;SDS011;33128;51.580;5.170;2022-10-31T18:13:20;34.25;;;32.00;;
47381;SDS011;33128;51.580;5.170;2022-10-31T18:15:47;32.80;;;30.65;;
47381;SDS011;33128;51.580;5.170;2022-10-31T18:18:12;33.97;;;31.58;;
47381;SDS011;33128;51.580;5.170;2022-10-31T18:20:38;32.75;;;30.45;;
47381;SDS011;33128;51.580;5.170;2022-10-31T18:23:05;32.85;;;30.15;;
47381;SDS011;33128;51.580;5.170;2022-10-31T18:25:31;32.50;;;29.70;;
47381;SDS011;33128;51.580;5.170;2022-10-31T18:27:56;32.75;;;30.55;;
47381;SDS011;33128;51.580;5.170;2022-10-31T18:30:33;31.92;;;29.65;;
47381;SDS011;33128;51.580;5.170;2022-10-31T18:33:03;31.10;;;29.00;;
47381;SDS011;33128;51.580;5.170;2022-10-31T18:35:29;30.92;;;28.60;;
47381;SDS011;33128;51.580;5.170;2022-10-31T18:37:54;31.35;;;29.35;;
47381;SDS011;33128;51.580;5.170;2022-10-31T18:40:20;29.55;;;27.42;;
47381;SDS011;33128;51.580;5.170;2022-10-31T18:42:45;31.67;;;29.23;;
47381;SDS011;33128;51.580;5.170;2022-10-31T18:45:11;31.85;;;29.55;;
47381;SDS011;33128;51.580;5.170;2022-10-31T18:47:37;32.80;;;30.02;;
47381;SDS011;33128;51.580;5.170;2022-10-31T18:50:02;31.60;;;29.20;;